sensor_id;sensor_type;location;lat;lon;timestamp;pressure;altitude;pressure_sealevel;temperature;humidity
64141;BME280;50436;50.618;7.932;2022-11-15T00:00:06;96098.38;;;7.65;100.00
64141;BME280;50436;50.618;7.932;2022-11-15T00:03:14;96090.94;;;7.67;100.00
64141;BME280;50436;50.618;7.932;2022-11-15T00:06:19;96092.31;;;7.69;100.00
64141;BME280;50436;50.618;7.932;2022-11-15T00:09:23;96094.50;;;7.72;100.00
64141;BME280;50436;50.618;7.932;2022-11-15T00:12:28;96088.56;;;7.82;100.00
64141;BME280;50436;50.618;7.932;2022-11-15T00:15:39;96085.31;;;7.80;100.00
64141;BME280;50436;50.618;7.932;2022-11-15T00:18:44;96081.25;;;7.77;100.00
64141;BME280;50436;50.618;7.932;2022-11-15T00:21:51;96088.69;;;7.75;100.00
64141;BME280;50436;50.618;7.932;2022-11-15T00:24:55;96090.66;;;7.80;100.00
64141;BME280;50436;50.618;7.932;2022-11-15T00:28:00;96085.66;;;7.83;100.00
64141;BME280;50436;50.618;7.932;2022-11-15T00:31:08;96086.53;;;7.89;100.00
64141;BME280;50436;50.618;7.932;2022-11-15T00:34:13;96075.22;;;7.82;100.00
64141;BME280;50436;50.618;7.932;2022-11-15T00:37:17;96084.59;;;7.85;100.00
64141;BME280;50436;50.618;7.932;2022-11-15T00:40:21;96081.94;;;7.85;100.00
64141;BME280;50436;50.618;7.932;2022-11-15T00:43:26;96071.38;;;7.90;100.00
64141;BME280;50436;50.618;7.932;2022-11-15T00:46:30;96075.19;;;7.94;100.00
64141;BME280;50436;50.618;7.932;2022-11-15T00:49:35;96065.00;;;7.91;100.00
64141;BME280;50436;50.618;7.932;2022-11-15T00:52:39;96068.81;;;7.95;100.00
64141;BME280;50436;50.618;7.932;2022-11-15T00:55:44;96066.69;;;7.97;100.00
64141;BME280;50436;50.618;7.932;2022-11-15T00:58:48;96072.41;;;7.89;100.00
64141;BME280;50436;50.618;7.932;2022-11-15T01:01:52;96077.41;;;7.85;100.00
64141;BME280;50436;50.618;7.932;2022-11-15T01:04:57;96081.13;;;7.84;100.00
64141;BME280;50436;50.618;7.932;2022-11-15T01:08:01;96085.66;;;7.83;100.00
64141;BME280;50436;50.618;7.932;2022-11-15T01:11:08;96080.06;;;7.85;100.00
64141;BME280;50436;50.618;7.932;2022-11-15T01:14:14;96082.72;;;7.85;100.00
64141;BME280;50436;50.618;7.932;2022-11-15T01:17:18;96075.47;;;7.80;100.00
64141;BME280;50436;50.618;7.932;2022-11-15T01:20:22;96079.75;;;7.81;100.00
64141;BME280;50436;50.618;7.932;2022-11-15T01:23:27;96072.06;;;7.85;100.00
64141;BME280;50436;50.618;7.932;2022-11-15T01:26:31;96070.22;;;7.86;100.00
64141;BME280;50436;50.618;7.932;2022-11-15T01:29:36;96058.34;;;7.76;100.00
64141;BME280;50436;50.618;7.932;2022-11-15T01:32:40;96068.53;;;7.79;100.00
64141;BME280;50436;50.618;7.932;2022-11-15T01:35:44;96061.34;;;7.80;100.00
64141;BME280;50436;50.618;7.932;2022-11-15T01:38:53;96062.41;;;7.79;100.00
64141;BME280;50436;50.618;7.932;2022-11-15T01:41:59;96061.81;;;7.77;100.00
64141;BME280;50436;50.618;7.932;2022-11-15T01:45:04;96066.19;;;7.83;100.00
64141;BME280;50436;50.618;7.932;2022-11-15T01:48:10;96056.34;;;7.83;100.00
64141;BME280;50436;50.618;7.932;2022-11-15T01:51:17;96062.81;;;7.88;100.00
64141;BME280;50436;50.618;7.932;2022-11-15T01:54:23;96051.81;;;7.84;100.00
64141;BME280;50436;50.618;7.932;2022-11-15T01:57:29;96038.19;;;7.80;100.00
64141;BME280;50436;50.618;7.932;2022-11-15T02:00:34;96044.72;;;7.73;100.00
64141;BME280;50436;50.618;7.932;2022-11-15T02:03:48;96051.91;;;7.72;100.00
64141;BME280;50436;50.618;7.932;2022-11-15T02:06:55;96035.91;;;7.72;100.00
64141;BME280;50436;50.618;7.932;2022-11-15T02:10:06;96040.03;;;7.80;100.00
64141;BME280;50436;50.618;7.932;2022-11-15T02:13:14;96036.63;;;7.85;100.00
64141;BME280;50436;50.618;7.932;2022-11-15T02:16:38;96034.78;;;7.85;100.00
64141;BME280;50436;50.618;7.932;2022-11-15T02:27:07;96029.78;;;8.05;100.00
64141;BME280;50436;50.618;7.932;2022-11-15T02:30:45;96025.81;;;8.08;100.00
64141;BME280;50436;50.618;7.932;2022-11-15T02:37:27;96025.91;;;8.13;100.00
64141;BME280;50436;50.618;7.932;2022-11-15T02:44:20;96024.28;;;8.29;100.00
64141;BME280;50436;50.618;7.932;2022-11-15T02:47:28;96021.31;;;8.25;100.00
64141;BME280;50436;50.618;7.932;2022-11-15T02:50:35;96014.13;;;8.26;100.00
64141;BME280;50436;50.618;7.932;2022-11-15T02:53:40;96009.34;;;8.28;100.00
64141;BME280;50436;50.618;7.932;2022-11-15T02:56:45;96004.03;;;8.28;100.00
64141;BME280;50436;50.618;7.932;2022-11-15T03:03:27;96002.97;;;8.29;100.00
64141;BME280;50436;50.618;7.932;2022-11-15T03:10:02;95994.91;;;8.41;100.00
64141;BME280;50436;50.618;7.932;2022-11-15T03:13:37;95985.06;;;8.41;100.00
64141;BME280;50436;50.618;7.932;2022-11-15T03:19:57;95987.75;;;8.46;100.00
64141;BME280;50436;50.618;7.932;2022-11-15T03:23:08;95989.72;;;8.51;100.00
64141;BME280;50436;50.618;7.932;2022-11-15T03:26:16;95991.00;;;8.48;100.00
64141;BME280;50436;50.618;7.932;2022-11-15T03:29:27;95982.44;;;8.46;100.00
64141;BME280;50436;50.618;7.932;2022-11-15T03:32:37;95981.38;;;8.47;100.00
64141;BME280;50436;50.618;7.932;2022-11-15T03:35:44;95982.44;;;8.46;100.00
64141;BME280;50436;50.618;7.932;2022-11-15T03:38:53;95979.72;;;8.41;100.00
64141;BME280;50436;50.618;7.932;2022-11-15T03:42:17;95983.25;;;8.47;100.00
64141;BME280;50436;50.618;7.932;2022-11-15T03:45:39;95983.56;;;8.50;100.00
64141;BME280;50436;50.618;7.932;2022-11-15T03:48:53;95983.06;;;8.53;100.00
64141;BME280;50436;50.618;7.932;2022-11-15T03:51:59;95985.69;;;8.48;100.00
64141;BME280;50436;50.618;7.932;2022-11-15T03:55:07;95979.84;;;8.51;100.00
64141;BME280;50436;50.618;7.932;2022-11-15T03:58:12;95992.78;;;8.43;100.00
64141;BME280;50436;50.618;7.932;2022-11-15T04:01:16;95986.78;;;8.52;100.00
64141;BME280;50436;50.618;7.932;2022-11-15T04:04:20;95993.69;;;8.48;100.00
64141;BME280;50436;50.618;7.932;2022-11-15T04:07:25;95997.88;;;8.44;100.00
64141;BME280;50436;50.618;7.932;2022-11-15T04:10:30;95990.38;;;8.41;100.00
64141;BME280;50436;50.618;7.932;2022-11-15T04:13:34;95987.22;;;8.44;100.00
64141;BME280;50436;50.618;7.932;2022-11-15T04:16:39;95996.56;;;8.47;100.00
64141;BME280;50436;50.618;7.932;2022-11-15T04:19:43;95997.31;;;8.42;100.00
64141;BME280;50436;50.618;7.932;2022-11-15T04:23:22;95986.56;;;8.37;100.00
64141;BME280;50436;50.618;7.932;2022-11-15T04:26:45;95988.69;;;8.35;100.00
64141;BME280;50436;50.618;7.932;2022-11-15T04:29:50;95973.09;;;8.27;100.00
64141;BME280;50436;50.618;7.932;2022-11-15T04:32:54;95969.38;;;8.28;100.00
64141;BME280;50436;50.618;7.932;2022-11-15T04:35:59;95971.47;;;8.26;100.00
64141;BME280;50436;50.618;7.932;2022-11-15T04:39:22;95969.91;;;8.30;100.00
64141;BME280;50436;50.618;7.932;2022-11-15T04:42:26;95980.84;;;8.28;100.00
64141;BME280;50436;50.618;7.932;2022-11-15T04:45:31;95969.44;;;8.33;100.00
64141;BME280;50436;50.618;7.932;2022-11-15T04:48:35;95965.59;;;8.41;100.00
64141;BME280;50436;50.618;7.932;2022-11-15T04:51:39;95973.50;;;8.35;100.00
64141;BME280;50436;50.618;7.932;2022-11-15T04:54:44;95963.38;;;8.37;100.00
64141;BME280;50436;50.618;7.932;2022-11-15T04:57:57;95964.28;;;8.43;100.00
64141;BME280;50436;50.618;7.932;2022-11-15T05:04:13;95964.53;;;8.42;100.00
64141;BME280;50436;50.618;7.932;2022-11-15T05:07:23;95952.56;;;8.44;100.00
64141;BME280;50436;50.618;7.932;2022-11-15T05:10:27;95962.41;;;8.44;100.00
64141;BME280;50436;50.618;7.932;2022-11-15T05:13:32;95960.53;;;8.44;100.00
64141;BME280;50436;50.618;7.932;2022-11-15T05:16:36;95967.25;;;8.47;100.00
64141;BME280;50436;50.618;7.932;2022-11-15T05:19:41;95969.69;;;8.48;100.00
64141;BME280;50436;50.618;7.932;2022-11-15T05:22:45;95977.69;;;8.48;100.00
64141;BME280;50436;50.618;7.932;2022-11-15T05:25:49;95970.16;;;8.45;100.00
64141;BME280;50436;50.618;7.932;2022-11-15T05:28:58;95970.72;;;8.47;100.00
64141;BME280;50436;50.618;7.932;2022-11-15T05:32:05;95971.75;;;8.46;100.00
64141;BME280;50436;50.618;7.932;2022-11-15T05:35:15;95970.31;;;8.38;100.00
64141;BME280;50436;50.618;7.932;2022-11-15T05:38:23;95965.50;;;8.35;100.00
64141;BME280;50436;50.618;7.932;2022-11-15T05:41:34;95954.97;;;8.29;100.00
64141;BME280;50436;50.618;7.932;2022-11-15T05:44:43;95965.97;;;8.16;100.00
64141;BME280;50436;50.618;7.932;2022-11-15T05:47:49;95963.09;;;8.00;100.00
64141;BME280;50436;50.618;7.932;2022-11-15T05:50:54;95951.97;;;7.87;100.00
64141;BME280;50436;50.618;7.932;2022-11-15T05:54:01;95966.50;;;7.79;100.00
64141;BME280;50436;50.618;7.932;2022-11-15T05:57:06;95963.66;;;7.69;100.00
64141;BME280;50436;50.618;7.932;2022-11-15T06:00:10;95958.75;;;7.61;100.00
64141;BME280;50436;50.618;7.932;2022-11-15T06:03:15;95964.31;;;7.59;100.00
64141;BME280;50436;50.618;7.932;2022-11-15T06:06:19;95963.41;;;7.53;100.00
64141;BME280;50436;50.618;7.932;2022-11-15T06:09:24;95969.47;;;7.49;100.00
64141;BME280;50436;50.618;7.932;2022-11-15T06:12:29;95963.25;;;7.43;100.00
64141;BME280;50436;50.618;7.932;2022-11-15T06:15:33;95964.06;;;7.44;100.00
64141;BME280;50436;50.618;7.932;2022-11-15T06:18:40;95970.69;;;7.41;100.00
64141;BME280;50436;50.618;7.932;2022-11-15T06:21:45;95964.31;;;7.42;100.00
64141;BME280;50436;50.618;7.932;2022-11-15T06:24:49;95969.88;;;7.41;100.00
64141;BME280;50436;50.618;7.932;2022-11-15T06:27:55;95979.72;;;7.40;100.00
64141;BME280;50436;50.618;7.932;2022-11-15T06:31:04;95981.47;;;7.35;100.00
64141;BME280;50436;50.618;7.932;2022-11-15T06:34:09;95975.00;;;7.31;100.00
64141;BME280;50436;50.618;7.932;2022-11-15T06:37:13;95972.72;;;7.22;100.00
64141;BME280;50436;50.618;7.932;2022-11-15T06:40:18;95990.09;;;7.25;100.00
64141;BME280;50436;50.618;7.932;2022-11-15T06:43:22;95986.84;;;7.23;100.00
64141;BME280;50436;50.618;7.932;2022-11-15T06:46:27;95986.84;;;7.23;100.00
64141;BME280;50436;50.618;7.932;2022-11-15T06:49:31;95977.72;;;7.19;100.00
64141;BME280;50436;50.618;7.932;2022-11-15T06:52:35;95993.47;;;7.20;100.00
64141;BME280;50436;50.618;7.932;2022-11-15T06:55:40;96001.41;;;7.32;100.00
64141;BME280;50436;50.618;7.932;2022-11-15T06:58:44;95993.88;;;7.29;100.00
64141;BME280;50436;50.618;7.932;2022-11-15T07:01:49;95999.47;;;7.44;100.00
64141;BME280;50436;50.618;7.932;2022-11-15T07:04:53;96003.84;;;7.50;100.00
64141;BME280;50436;50.618;7.932;2022-11-15T07:07:58;96004.66;;;7.68;100.00
64141;BME280;50436;50.618;7.932;2022-11-15T07:11:05;96010.16;;;7.78;100.00
64141;BME280;50436;50.618;7.932;2022-11-15T07:14:10;96003.88;;;7.84;100.00
64141;BME280;50436;50.618;7.932;2022-11-15T07:17:14;96007.84;;;7.81;100.00
64141;BME280;50436;50.618;7.932;2022-11-15T07:20:19;96008.47;;;7.89;100.00
64141;BME280;50436;50.618;7.932;2022-11-15T07:23:23;96009.84;;;7.91;100.00
64141;BME280;50436;50.618;7.932;2022-11-15T07:26:27;95997.16;;;7.98;100.00
64141;BME280;50436;50.618;7.932;2022-11-15T07:29:34;95983.28;;;7.96;100.00
64141;BME280;50436;50.618;7.932;2022-11-15T07:32:39;95998.31;;;8.02;100.00
64141;BME280;50436;50.618;7.932;2022-11-15T07:35:43;95988.22;;;8.04;100.00
64141;BME280;50436;50.618;7.932;2022-11-15T07:38:50;95977.84;;;8.08;100.00
64141;BME280;50436;50.618;7.932;2022-11-15T07:41:55;95987.81;;;8.13;100.00
64141;BME280;50436;50.618;7.932;2022-11-15T07:45:20;95976.63;;;8.16;100.00
64141;BME280;50436;50.618;7.932;2022-11-15T07:48:24;95981.56;;;8.24;100.00
64141;BME280;50436;50.618;7.932;2022-11-15T07:51:29;95983.41;;;8.23;100.00
64141;BME280;50436;50.618;7.932;2022-11-15T07:54:34;95982.06;;;8.21;100.00
64141;BME280;50436;50.618;7.932;2022-11-15T07:57:38;95980.06;;;8.11;100.00
64141;BME280;50436;50.618;7.932;2022-11-15T08:00:43;95981.41;;;8.14;100.00
64141;BME280;50436;50.618;7.932;2022-11-15T08:03:47;95991.41;;;8.23;100.00
64141;BME280;50436;50.618;7.932;2022-11-15T08:06:51;95990.69;;;8.28;100.00
64141;BME280;50436;50.618;7.932;2022-11-15T08:09:56;95982.53;;;8.34;100.00
64141;BME280;50436;50.618;7.932;2022-11-15T08:13:06;95974.13;;;8.43;100.00
64141;BME280;50436;50.618;7.932;2022-11-15T08:16:11;95966.44;;;8.46;100.00
64141;BME280;50436;50.618;7.932;2022-11-15T08:19:16;95978.22;;;8.50;100.00
64141;BME280;50436;50.618;7.932;2022-11-15T08:22:20;95971.59;;;8.53;100.00
64141;BME280;50436;50.618;7.932;2022-11-15T08:25:26;95968.94;;;8.53;100.00
64141;BME280;50436;50.618;7.932;2022-11-15T08:28:31;95971.44;;;8.81;100.00
64141;BME280;50436;50.618;7.932;2022-11-15T08:31:36;95968.25;;;8.84;100.00
64141;BME280;50436;50.618;7.932;2022-11-15T08:34:41;95965.09;;;8.87;100.00
64141;BME280;50436;50.618;7.932;2022-11-15T08:37:45;95970.91;;;8.84;100.00
64141;BME280;50436;50.618;7.932;2022-11-15T08:41:01;95969.56;;;8.82;100.00
64141;BME280;50436;50.618;7.932;2022-11-15T08:44:05;95966.09;;;8.81;100.00
64141;BME280;50436;50.618;7.932;2022-11-15T08:47:11;95967.56;;;8.94;100.00
64141;BME280;50436;50.618;7.932;2022-11-15T08:50:16;95956.41;;;8.97;100.00
64141;BME280;50436;50.618;7.932;2022-11-15T08:53:21;95950.25;;;8.97;100.00
64141;BME280;50436;50.618;7.932;2022-11-15T08:56:26;95947.59;;;8.97;100.00
64141;BME280;50436;50.618;7.932;2022-11-15T08:59:30;95956.06;;;8.93;100.00
64141;BME280;50436;50.618;7.932;2022-11-15T09:02:34;95954.72;;;8.91;100.00
64141;BME280;50436;50.618;7.932;2022-11-15T09:05:41;95953.97;;;8.96;100.00
64141;BME280;50436;50.618;7.932;2022-11-15T09:08:45;95957.50;;;9.01;100.00
64141;BME280;50436;50.618;7.932;2022-11-15T09:11:50;95945.81;;;9.07;100.00
64141;BME280;50436;50.618;7.932;2022-11-15T09:14:55;95947.84;;;9.22;100.00
64141;BME280;50436;50.618;7.932;2022-11-15T09:17:59;95948.53;;;9.39;100.00
64141;BME280;50436;50.618;7.932;2022-11-15T09:21:03;95946.78;;;9.50;100.00
64141;BME280;50436;50.618;7.932;2022-11-15T09:24:08;95961.38;;;9.69;100.00
64141;BME280;50436;50.618;7.932;2022-11-15T09:27:12;95953.56;;;9.63;100.00
64141;BME280;50436;50.618;7.932;2022-11-15T09:30:17;95960.75;;;9.62;100.00
64141;BME280;50436;50.618;7.932;2022-11-15T09:33:22;95959.16;;;9.61;100.00
64141;BME280;50436;50.618;7.932;2022-11-15T09:36:26;95945.84;;;9.66;100.00
64141;BME280;50436;50.618;7.932;2022-11-15T09:39:31;95939.19;;;9.69;100.00
64141;BME280;50436;50.618;7.932;2022-11-15T09:49:33;95940.63;;;9.49;100.00
64141;BME280;50436;50.618;7.932;2022-11-15T09:52:36;95944.72;;;9.57;100.00
64141;BME280;50436;50.618;7.932;2022-11-15T09:55:35;95935.13;;;9.61;100.00
64141;BME280;50436;50.618;7.932;2022-11-15T09:58:35;95927.97;;;9.67;100.00
64141;BME280;50436;50.618;7.932;2022-11-15T10:01:46;95925.75;;;9.96;100.00
64141;BME280;50436;50.618;7.932;2022-11-15T10:04:36;95921.34;;;9.80;100.00
64141;BME280;50436;50.618;7.932;2022-11-15T10:13:27;95921.31;;;10.12;100.00
64141;BME280;50436;50.618;7.932;2022-11-15T10:22:53;95912.06;;;10.24;100.00
64141;BME280;50436;50.618;7.932;2022-11-15T10:25:40;95911.19;;;10.71;100.00
64141;BME280;50436;50.618;7.932;2022-11-15T10:28:27;95896.56;;;10.94;100.00
64141;BME280;50436;50.618;7.932;2022-11-15T10:31:28;95895.56;;;11.71;100.00
64141;BME280;50436;50.618;7.932;2022-11-15T10:34:22;95881.59;;;13.34;100.00
64141;BME280;50436;50.618;7.932;2022-11-15T10:37:08;95872.78;;;11.89;100.00
64141;BME280;50436;50.618;7.932;2022-11-15T10:40:19;95878.94;;;11.34;100.00
64141;BME280;50436;50.618;7.932;2022-11-15T10:45:54;95865.25;;;10.90;100.00
64141;BME280;50436;50.618;7.932;2022-11-15T10:48:40;95856.97;;;11.06;100.00
64141;BME280;50436;50.618;7.932;2022-11-15T10:51:27;95852.91;;;10.94;100.00
64141;BME280;50436;50.618;7.932;2022-11-15T10:54:33;95849.69;;;10.76;100.00
64141;BME280;50436;50.618;7.932;2022-11-15T10:57:27;95847.59;;;11.24;100.00
64141;BME280;50436;50.618;7.932;2022-11-15T11:06:16;95833.13;;;11.10;100.00
64141;BME280;50436;50.618;7.932;2022-11-15T11:09:04;95834.97;;;10.94;100.00
64141;BME280;50436;50.618;7.932;2022-11-15T11:11:51;95827.25;;;11.18;100.00
64141;BME280;50436;50.618;7.932;2022-11-15T11:14:39;95828.06;;;11.24;100.00
64141;BME280;50436;50.618;7.932;2022-11-15T11:17:33;95815.22;;;11.31;100.00
64141;BME280;50436;50.618;7.932;2022-11-15T11:23:30;95802.03;;;11.70;100.00
64141;BME280;50436;50.618;7.932;2022-11-15T11:29:41;95794.03;;;12.89;100.00
64141;BME280;50436;50.618;7.932;2022-11-15T11:39:11;95788.19;;;12.38;100.00
64141;BME280;50436;50.618;7.932;2022-11-15T11:42:46;95791.41;;;13.18;100.00
64141;BME280;50436;50.618;7.932;2022-11-15T11:45:51;95778.91;;;13.37;100.00
64141;BME280;50436;50.618;7.932;2022-11-15T11:49:09;95783.69;;;13.46;100.00
64141;BME280;50436;50.618;7.932;2022-11-15T11:52:02;95777.28;;;16.10;100.00
64141;BME280;50436;50.618;7.932;2022-11-15T11:55:12;95769.91;;;16.93;100.00
64141;BME280;50436;50.618;7.932;2022-11-15T11:58:24;95768.50;;;17.63;99.11
64141;BME280;50436;50.618;7.932;2022-11-15T12:01:20;95757.53;;;17.37;100.00
64141;BME280;50436;50.618;7.932;2022-11-15T12:04:18;95754.28;;;17.80;93.50
64141;BME280;50436;50.618;7.932;2022-11-15T12:07:15;95748.84;;;17.26;96.69
64141;BME280;50436;50.618;7.932;2022-11-15T12:10:11;95742.78;;;18.05;90.84
64141;BME280;50436;50.618;7.932;2022-11-15T12:13:11;95737.28;;;16.26;100.00
64141;BME280;50436;50.618;7.932;2022-11-15T12:18:53;95746.56;;;16.48;100.00
64141;BME280;50436;50.618;7.932;2022-11-15T12:22:00;95735.78;;;18.96;87.07
64141;BME280;50436;50.618;7.932;2022-11-15T12:24:57;95745.44;;;16.76;97.56
64141;BME280;50436;50.618;7.932;2022-11-15T12:30:49;95749.81;;;15.35;100.00
64141;BME280;50436;50.618;7.932;2022-11-15T12:33:47;95753.00;;;14.47;100.00
64141;BME280;50436;50.618;7.932;2022-11-15T12:36:43;95747.06;;;13.55;100.00
64141;BME280;50436;50.618;7.932;2022-11-15T12:46:05;95731.78;;;12.87;100.00
64141;BME280;50436;50.618;7.932;2022-11-15T12:48:54;95730.78;;;12.78;100.00
64141;BME280;50436;50.618;7.932;2022-11-15T12:57:33;95712.03;;;12.68;100.00
64141;BME280;50436;50.618;7.932;2022-11-15T13:03:19;95701.25;;;12.34;100.00
64141;BME280;50436;50.618;7.932;2022-11-15T13:06:07;95690.31;;;12.25;100.00
64141;BME280;50436;50.618;7.932;2022-11-15T13:08:53;95690.59;;;12.23;100.00
64141;BME280;50436;50.618;7.932;2022-11-15T13:11:48;95684.84;;;11.96;100.00
64141;BME280;50436;50.618;7.932;2022-11-15T13:23:13;95655.53;;;11.45;100.00
64141;BME280;50436;50.618;7.932;2022-11-15T13:26:10;95673.50;;;11.44;100.00
64141;BME280;50436;50.618;7.932;2022-11-15T13:28:58;95668.41;;;11.38;100.00
64141;BME280;50436;50.618;7.932;2022-11-15T13:31:46;95671.38;;;11.26;100.00
64141;BME280;50436;50.618;7.932;2022-11-15T13:34:33;95662.84;;;11.14;100.00
64141;BME280;50436;50.618;7.932;2022-11-15T13:40:35;95659.09;;;11.05;100.00
64141;BME280;50436;50.618;7.932;2022-11-15T13:46:17;95640.84;;;11.27;100.00
64141;BME280;50436;50.618;7.932;2022-11-15T13:49:05;95634.72;;;11.16;100.00
64141;BME280;50436;50.618;7.932;2022-11-15T13:51:54;95621.41;;;10.91;100.00
64141;BME280;50436;50.618;7.932;2022-11-15T13:54:52;95626.47;;;10.93;100.00
64141;BME280;50436;50.618;7.932;2022-11-15T13:57:58;95642.00;;;10.65;100.00
64141;BME280;50436;50.618;7.932;2022-11-15T14:00:45;95635.06;;;10.54;100.00
64141;BME280;50436;50.618;7.932;2022-11-15T14:03:34;95634.00;;;10.40;100.00
64141;BME280;50436;50.618;7.932;2022-11-15T14:06:23;95617.94;;;10.29;100.00
64141;BME280;50436;50.618;7.932;2022-11-15T14:11:56;95618.22;;;10.33;100.00
64141;BME280;50436;50.618;7.932;2022-11-15T14:14:46;95608.31;;;10.28;100.00
64141;BME280;50436;50.618;7.932;2022-11-15T14:17:34;95596.81;;;10.33;100.00
64141;BME280;50436;50.618;7.932;2022-11-15T14:23:29;95597.09;;;10.31;100.00
64141;BME280;50436;50.618;7.932;2022-11-15T14:26:34;95597.88;;;10.32;100.00
64141;BME280;50436;50.618;7.932;2022-11-15T14:29:27;95598.66;;;10.17;100.00
64141;BME280;50436;50.618;7.932;2022-11-15T14:32:15;95593.84;;;10.09;100.00
64141;BME280;50436;50.618;7.932;2022-11-15T14:35:02;95587.41;;;10.00;100.00
64141;BME280;50436;50.618;7.932;2022-11-15T14:37:49;95594.38;;;10.06;100.00
64141;BME280;50436;50.618;7.932;2022-11-15T14:40:35;95598.63;;;9.97;100.00
64141;BME280;50436;50.618;7.932;2022-11-15T14:43:22;95587.69;;;9.98;100.00
64141;BME280;50436;50.618;7.932;2022-11-15T14:46:08;95584.97;;;9.88;100.00
64141;BME280;50436;50.618;7.932;2022-11-15T14:48:53;95573.47;;;9.88;100.00
64141;BME280;50436;50.618;7.932;2022-11-15T14:51:39;95561.72;;;9.84;100.00
64141;BME280;50436;50.618;7.932;2022-11-15T14:54:25;95552.91;;;9.83;100.00
64141;BME280;50436;50.618;7.932;2022-11-15T14:57:11;95564.94;;;9.86;100.00
64141;BME280;50436;50.618;7.932;2022-11-15T14:59:57;95551.81;;;9.79;100.00
64141;BME280;50436;50.618;7.932;2022-11-15T15:02:45;95556.66;;;9.82;100.00
64141;BME280;50436;50.618;7.932;2022-11-15T15:05:40;95552.41;;;9.96;100.00
64141;BME280;50436;50.618;7.932;2022-11-15T15:08:27;95550.00;;;9.90;100.00
64141;BME280;50436;50.618;7.932;2022-11-15T15:11:20;95551.59;;;9.81;100.00
64141;BME280;50436;50.618;7.932;2022-11-15T15:14:08;95549.94;;;9.64;100.00
64141;BME280;50436;50.618;7.932;2022-11-15T15:16:54;95539.53;;;9.78;100.00
64141;BME280;50436;50.618;7.932;2022-11-15T15:19:40;95531.78;;;9.76;100.00
64141;BME280;50436;50.618;7.932;2022-11-15T15:22:28;95529.34;;;9.65;100.00
64141;BME280;50436;50.618;7.932;2022-11-15T15:25:27;95534.97;;;9.53;100.00
64141;BME280;50436;50.618;7.932;2022-11-15T15:28:14;95533.34;;;9.42;100.00
64141;BME280;50436;50.618;7.932;2022-11-15T15:31:00;95521.59;;;9.43;100.00
64141;BME280;50436;50.618;7.932;2022-11-15T15:33:46;95521.31;;;9.44;100.00
64141;BME280;50436;50.618;7.932;2022-11-15T15:36:32;95521.03;;;9.41;100.00
64141;BME280;50436;50.618;7.932;2022-11-15T15:39:18;95517.56;;;9.40;100.00
64141;BME280;50436;50.618;7.932;2022-11-15T15:42:04;95509.59;;;9.51;100.00
64141;BME280;50436;50.618;7.932;2022-11-15T15:44:50;95502.09;;;9.47;100.00
64141;BME280;50436;50.618;7.932;2022-11-15T15:47:36;95505.56;;;9.43;100.00
64141;BME280;50436;50.618;7.932;2022-11-15T15:50:28;95508.50;;;9.36;100.00
64141;BME280;50436;50.618;7.932;2022-11-15T15:53:14;95508.75;;;9.40;100.00
64141;BME280;50436;50.618;7.932;2022-11-15T15:56:00;95502.88;;;9.38;100.00
64141;BME280;50436;50.618;7.932;2022-11-15T15:58:46;95498.06;;;9.40;100.00
64141;BME280;50436;50.618;7.932;2022-11-15T16:01:32;95499.13;;;9.39;100.00
64141;BME280;50436;50.618;7.932;2022-11-15T16:04:18;95499.44;;;9.42;100.00
64141;BME280;50436;50.618;7.932;2022-11-15T16:07:04;95500.47;;;9.41;100.00
64141;BME280;50436;50.618;7.932;2022-11-15T16:09:50;95490.88;;;9.40;100.00
64141;BME280;50436;50.618;7.932;2022-11-15T16:12:45;95483.13;;;9.39;100.00
64141;BME280;50436;50.618;7.932;2022-11-15T16:15:31;95487.94;;;9.37;100.00
64141;BME280;50436;50.618;7.932;2022-11-15T16:18:18;95491.63;;;9.26;100.00
64141;BME280;50436;50.618;7.932;2022-11-15T16:21:04;95489.75;;;9.16;100.00
64141;BME280;50436;50.618;7.932;2022-11-15T16:23:50;95482.25;;;9.18;100.00
64141;BME280;50436;50.618;7.932;2022-11-15T16:26:37;95488.44;;;9.18;100.00
64141;BME280;50436;50.618;7.932;2022-11-15T16:29:23;95482.81;;;9.15;100.00
64141;BME280;50436;50.618;7.932;2022-11-15T16:32:09;95478.78;;;9.07;100.00
64141;BME280;50436;50.618;7.932;2022-11-15T16:34:55;95492.66;;;9.09;100.00
64141;BME280;50436;50.618;7.932;2022-11-15T16:37:43;95484.94;;;9.13;100.00
64141;BME280;50436;50.618;7.932;2022-11-15T16:40:34;95475.56;;;9.05;100.00
64141;BME280;50436;50.618;7.932;2022-11-15T16:43:20;95475.84;;;9.09;100.00
64141;BME280;50436;50.618;7.932;2022-11-15T16:46:12;95472.91;;;9.10;100.00
64141;BME280;50436;50.618;7.932;2022-11-15T16:48:59;95468.69;;;9.19;100.00
64141;BME280;50436;50.618;7.932;2022-11-15T16:51:45;95434.50;;;9.21;100.00
64141;BME280;50436;50.618;7.932;2022-11-15T16:54:31;95451.03;;;9.13;100.00
64141;BME280;50436;50.618;7.932;2022-11-15T16:57:17;95467.59;;;9.15;100.00
64141;BME280;50436;50.618;7.932;2022-11-15T17:00:03;95464.88;;;9.10;100.00
64141;BME280;50436;50.618;7.932;2022-11-15T17:02:51;95474.00;;;9.14;100.00
64141;BME280;50436;50.618;7.932;2022-11-15T17:05:38;95465.72;;;9.11;100.00
64141;BME280;50436;50.618;7.932;2022-11-15T17:08:23;95465.44;;;9.12;100.00
64141;BME280;50436;50.618;7.932;2022-11-15T17:11:13;95446.47;;;9.09;100.00
64141;BME280;50436;50.618;7.932;2022-11-15T17:14:00;95456.88;;;9.10;100.00
64141;BME280;50436;50.618;7.932;2022-11-15T17:16:47;95453.19;;;9.11;100.00
64141;BME280;50436;50.618;7.932;2022-11-15T17:19:32;95432.88;;;9.10;100.00
64141;BME280;50436;50.618;7.932;2022-11-15T17:22:19;95434.75;;;9.15;100.00
64141;BME280;50436;50.618;7.932;2022-11-15T17:25:06;95428.34;;;9.11;100.00
64141;BME280;50436;50.618;7.932;2022-11-15T17:27:55;95420.06;;;9.07;100.00
64141;BME280;50436;50.618;7.932;2022-11-15T17:30:41;95434.50;;;9.11;100.00
64141;BME280;50436;50.618;7.932;2022-11-15T17:33:27;95429.13;;;9.06;100.00
64141;BME280;50436;50.618;7.932;2022-11-15T17:36:13;95430.47;;;9.09;100.00
64141;BME280;50436;50.618;7.932;2022-11-15T17:38:59;95416.88;;;9.05;100.00